createdAt,value
2019-03-03T00:00:31.139Z,140.22
2019-03-03T00:02:59.529Z,148.10
2019-03-03T00:05:27.798Z,158.65
2019-03-03T00:07:56.429Z,147.57
2019-03-03T00:10:24.713Z,135.12
2019-03-03T00:12:53.338Z,119.42
2019-03-03T00:15:22.520Z,121.05
2019-03-03T00:17:50.797Z,120.10
2019-03-03T00:20:19.063Z,122.05
2019-03-03T00:22:48.375Z,121.13
2019-03-03T00:25:16.578Z,171.68
2019-03-03T00:27:46.028Z,138.82
2019-03-03T00:30:20.933Z,128.02
2019-03-03T00:32:49.216Z,116.65
2019-03-03T00:35:17.492Z,150.05
2019-03-03T00:37:47.417Z,126.78
2019-03-03T00:40:26.183Z,124.25
2019-03-03T00:43:12.168Z,126.55
2019-03-03T00:45:54.081Z,212.50
2019-03-03T00:51:17.680Z,214.20
2019-03-03T00:53:56.548Z,205.95
2019-03-03T00:56:26.448Z,310.45
2019-03-03T00:59:12.527Z,227.32
2019-03-03T01:01:51.466Z,228.73
2019-03-03T01:04:21.368Z,185.15
2019-03-03T01:06:51.278Z,109.87
2019-03-03T01:09:43.799Z,113.15
2019-03-03T01:12:13.673Z,171.43
2019-03-03T01:14:59.792Z,117.53
2019-03-03T01:17:29.731Z,107.67
2019-03-03T01:19:59.642Z,103.25
2019-03-03T01:22:32.262Z,94.30
2019-03-03T01:25:00.547Z,92.37
2019-03-03T01:27:28.807Z,85.77
2019-03-03T01:29:57.077Z,87.15
2019-03-03T01:32:25.328Z,88.12
2019-03-03T01:34:53.605Z,81.82
2019-03-03T01:37:21.864Z,94.13
2019-03-03T01:39:51.029Z,366.50
2019-03-03T01:42:19.282Z,226.10
2019-03-03T01:44:47.606Z,244.85
2019-03-03T01:47:15.859Z,99.58
2019-03-03T01:49:44.117Z,113.22
2019-03-03T01:52:12.382Z,84.47
2019-03-03T01:54:40.674Z,93.07
2019-03-03T01:57:08.965Z,74.67
2019-03-03T01:59:37.239Z,75.17
2019-03-03T02:02:05.765Z,430.63
2019-03-03T02:04:34.093Z,377.38
2019-03-03T02:07:02.363Z,194.32
2019-03-03T02:09:30.648Z,188.15
2019-03-03T02:11:58.908Z,234.98
2019-03-03T02:14:27.205Z,187.77
2019-03-03T02:16:55.461Z,135.75
2019-03-03T02:19:23.747Z,117.62
2019-03-03T02:21:52.035Z,152.72
2019-03-03T02:24:20.307Z,113.20
2019-03-03T02:26:48.595Z,114.70
2019-03-03T02:29:16.851Z,127.25
2019-03-03T02:31:45.120Z,119.72
2019-03-03T02:34:13.408Z,111.05
2019-03-03T02:36:43.436Z,102.20
2019-03-03T02:39:16.060Z,75.90
2019-03-03T02:41:44.338Z,73.62
2019-03-03T02:44:12.672Z,65.42
2019-03-03T02:46:40.962Z,70.87
2019-03-03T02:49:09.229Z,63.28
2019-03-03T02:51:37.538Z,59.05
2019-03-03T02:54:05.787Z,70.00
2019-03-03T02:56:34.421Z,66.77
2019-03-03T02:59:02.674Z,63.98
2019-03-03T03:01:32.585Z,64.72
2019-03-03T03:04:00.851Z,65.45
2019-03-03T03:06:30.777Z,64.58
2019-03-03T03:09:09.757Z,64.07
2019-03-03T03:11:45.641Z,69.90
2019-03-03T03:14:18.743Z,65.03
2019-03-03T03:17:06.783Z,62.48
2019-03-03T03:19:45.872Z,69.77
2019-03-03T03:22:15.767Z,64.55
2019-03-03T03:24:48.400Z,65.70
2019-03-03T03:27:20.934Z,67.30
2019-03-03T03:29:50.860Z,68.40
2019-03-03T03:32:26.756Z,62.60
2019-03-03T03:35:12.954Z,70.80
2019-03-03T03:37:57.819Z,70.28
2019-03-03T03:40:33.841Z,70.03
2019-03-03T03:43:23.927Z,61.73
2019-03-03T03:46:02.655Z,64.22
2019-03-03T03:48:44.415Z,65.42
2019-03-03T03:51:26.315Z,63.48
2019-03-03T03:56:50.839Z,63.35
2019-03-03T03:59:20.747Z,60.85
2019-03-03T04:02:05.804Z,55.25
2019-03-03T04:04:41.587Z,59.40
2019-03-03T04:07:11.632Z,56.33
2019-03-03T04:09:44.434Z,62.40
2019-03-03T04:12:20.380Z,61.18
2019-03-03T04:14:50.273Z,61.65
2019-03-03T04:17:20.177Z,60.92
2019-03-03T04:19:52.500Z,66.42
2019-03-03T04:22:28.225Z,66.72
2019-03-03T04:25:10.149Z,63.80
2019-03-03T04:30:37.921Z,64.30
2019-03-03T04:35:39.832Z,67.58
2019-03-03T04:38:11.117Z,61.90
2019-03-03T04:40:56.307Z,63.63
2019-03-03T04:43:29.106Z,64.70
2019-03-03T04:46:04.607Z,56.20
2019-03-03T04:48:34.547Z,73.80
2019-03-03T04:51:16.380Z,57.70
2019-03-03T04:53:46.306Z,62.03
2019-03-03T04:56:22.003Z,62.60
2019-03-03T04:59:00.753Z,69.00
2019-03-03T05:01:39.416Z,60.15
2019-03-03T05:04:15.079Z,64.55
2019-03-03T05:06:50.470Z,61.60
2019-03-03T05:09:22.819Z,60.88
2019-03-03T05:12:17.173Z,59.50
2019-03-03T05:14:45.796Z,74.65
2019-03-03T05:17:21.686Z,57.55
2019-03-03T05:19:51.587Z,62.58
2019-03-03T05:22:19.847Z,59.10
2019-03-03T05:24:48.138Z,65.57
2019-03-03T05:27:16.386Z,70.78
2019-03-03T05:29:44.675Z,63.83
2019-03-03T05:32:15.071Z,60.17
2019-03-03T05:34:43.364Z,57.67
2019-03-03T05:37:11.617Z,62.27
2019-03-03T05:39:39.904Z,60.45
2019-03-03T05:42:08.204Z,58.90
2019-03-03T05:44:36.423Z,64.03
2019-03-03T05:47:04.696Z,57.23
2019-03-03T05:49:32.979Z,59.20
2019-03-03T05:52:01.243Z,69.90
2019-03-03T05:54:29.511Z,62.35
2019-03-03T05:56:57.764Z,65.80
2019-03-03T05:59:26.031Z,67.03
2019-03-03T06:01:57.099Z,63.78
2019-03-03T06:04:25.354Z,66.75
2019-03-03T06:06:53.672Z,65.75
2019-03-03T06:09:21.896Z,62.03
2019-03-03T06:11:50.164Z,65.50
2019-03-03T06:14:18.421Z,66.33
2019-03-03T06:16:48.208Z,61.70
2019-03-03T06:19:16.496Z,67.03
2019-03-03T06:21:44.749Z,66.02
2019-03-03T06:24:13.019Z,67.12
2019-03-03T06:26:41.439Z,68.10
2019-03-03T06:29:09.744Z,67.67
2019-03-03T06:31:37.996Z,62.08
2019-03-03T06:34:06.245Z,69.92
2019-03-03T06:36:34.532Z,73.65
2019-03-03T06:39:04.553Z,95.20
2019-03-03T06:41:32.840Z,128.70
2019-03-03T06:44:01.164Z,106.67
2019-03-03T06:46:29.454Z,79.55
2019-03-03T06:48:57.707Z,89.83
2019-03-03T06:51:27.345Z,107.95
2019-03-03T06:53:55.633Z,333.80
2019-03-03T06:56:23.894Z,150.45
2019-03-03T06:58:52.160Z,253.05
2019-03-03T07:01:20.426Z,241.12
2019-03-03T07:03:48.713Z,153.62
2019-03-03T07:06:16.966Z,177.93
2019-03-03T07:08:45.289Z,173.15
2019-03-03T07:11:13.820Z,151.60
2019-03-03T07:13:43.330Z,187.90
2019-03-03T07:16:11.604Z,175.15
2019-03-03T07:18:39.893Z,171.80
2019-03-03T07:21:08.179Z,115.90
2019-03-03T07:23:36.450Z,128.27
2019-03-03T07:26:04.703Z,125.30
2019-03-03T07:28:32.976Z,132.67
2019-03-03T07:31:01.234Z,128.95
2019-03-03T07:33:32.865Z,124.95
2019-03-03T07:36:01.124Z,123.70
2019-03-03T07:38:29.384Z,131.35
2019-03-03T07:40:57.655Z,110.52
2019-03-03T07:43:25.916Z,94.05
2019-03-03T07:45:54.188Z,132.10
2019-03-03T07:48:22.456Z,194.35
2019-03-03T07:50:50.728Z,174.42
2019-03-03T07:53:19.036Z,292.82
2019-03-03T07:55:47.294Z,274.37
2019-03-03T07:58:15.568Z,138.62
2019-03-03T08:00:43.840Z,145.70
2019-03-03T08:03:12.131Z,161.37
2019-03-03T08:05:40.404Z,194.05
2019-03-03T08:08:08.702Z,164.47
2019-03-03T08:10:36.968Z,176.30
2019-03-03T08:13:09.331Z,205.45
2019-03-03T08:15:35.230Z,248.60
2019-03-03T08:18:03.520Z,254.18
2019-03-03T08:20:31.781Z,232.83
2019-03-03T08:23:00.075Z,197.62
2019-03-03T08:25:28.334Z,241.02
2019-03-03T08:27:56.622Z,148.20
2019-03-03T08:30:24.879Z,105.15
2019-03-03T08:32:53.169Z,218.30
2019-03-03T08:35:23.571Z,141.20
2019-03-03T08:37:51.870Z,115.12
2019-03-03T08:40:20.129Z,129.20
2019-03-03T08:42:50.037Z,148.22
2019-03-03T08:45:28.686Z,143.80
2019-03-03T08:48:04.867Z,146.20
2019-03-03T08:50:34.781Z,125.10
2019-03-03T08:53:07.364Z,85.70
2019-03-03T08:55:43.281Z,115.80
2019-03-03T08:58:16.197Z,87.97
2019-03-03T09:00:46.094Z,148.35
2019-03-03T09:03:25.074Z,118.72
2019-03-03T09:06:11.348Z,100.78
2019-03-03T09:08:44.247Z,104.75
2019-03-03T09:11:14.145Z,123.70
2019-03-03T09:13:44.071Z,105.27
2019-03-03T09:16:16.698Z,195.95
2019-03-03T09:19:02.743Z,108.57
2019-03-03T09:21:35.823Z,79.90
2019-03-03T09:24:08.260Z,106.97
2019-03-03T09:26:40.579Z,90.03
2019-03-03T09:29:15.512Z,112.55
2019-03-03T09:32:01.626Z,72.15
2019-03-03T09:34:47.406Z,105.92
2019-03-03T09:37:25.831Z,83.33
2019-03-03T09:40:09.112Z,94.15
2019-03-03T09:42:50.986Z,85.57
2019-03-03T09:45:36.664Z,69.67
2019-03-03T09:48:12.374Z,73.42
2019-03-03T09:50:42.336Z,70.92
2019-03-03T09:53:24.207Z,95.92
2019-03-03T09:55:56.951Z,98.92
2019-03-03T09:58:36.127Z,87.50
2019-03-03T10:01:08.728Z,92.85
2019-03-03T10:03:38.633Z,67.95
2019-03-03T10:06:23.566Z,65.78
2019-03-03T10:09:02.723Z,103.32
2019-03-03T10:11:32.645Z,73.33
2019-03-03T10:14:02.576Z,75.40
2019-03-03T10:16:44.063Z,74.60
2019-03-03T10:19:26.067Z,60.38
2019-03-03T10:24:27.785Z,58.68
2019-03-03T10:27:06.510Z,59.65
2019-03-03T10:29:39.392Z,63.70
2019-03-03T10:32:11.775Z,57.10
2019-03-03T10:34:50.943Z,56.45
2019-03-03T10:37:20.847Z,76.17
2019-03-03T10:39:50.797Z,55.95
2019-03-03T10:42:27.902Z,55.40
2019-03-03T10:45:08.918Z,46.37
2019-03-03T10:47:54.831Z,53.90
2019-03-03T10:50:33.787Z,59.08
2019-03-03T10:53:03.710Z,101.25
2019-03-03T10:55:36.888Z,116.93
2019-03-03T10:58:06.828Z,64.67
2019-03-03T11:00:36.736Z,70.00
2019-03-03T11:03:09.274Z,89.07
2019-03-03T11:05:39.184Z,75.52
2019-03-03T11:08:10.165Z,121.72
2019-03-03T11:10:57.383Z,50.23
2019-03-03T11:13:20.535Z,46.75
2019-03-03T11:15:58.017Z,44.88
2019-03-03T11:18:27.944Z,43.45
2019-03-03T11:21:03.857Z,73.72
2019-03-03T11:23:33.754Z,26.57
2019-03-03T11:26:06.418Z,44.85
2019-03-03T11:28:40.213Z,39.45
2019-03-03T11:31:21.961Z,41.77
2019-03-03T11:33:57.513Z,31.85
2019-03-03T11:36:27.416Z,31.05
2019-03-03T11:38:57.349Z,34.10
2019-03-03T11:41:33.222Z,46.37
2019-03-03T11:44:06.063Z,37.40
2019-03-03T11:46:45.125Z,27.17
2019-03-03T11:49:26.854Z,78.50
2019-03-03T11:51:59.438Z,92.97
2019-03-03T11:54:35.316Z,91.63
2019-03-03T11:57:21.823Z,102.47
2019-03-03T11:59:51.847Z,42.20
2019-03-03T12:02:36.842Z,137.62
2019-03-03T12:05:12.249Z,146.72
2019-03-03T12:07:44.422Z,90.62
2019-03-03T12:10:30.012Z,65.75
2019-03-03T12:12:59.944Z,63.10
2019-03-03T12:15:32.239Z,63.08
2019-03-03T12:18:17.486Z,63.08
2019-03-03T12:21:00.077Z,82.02
2019-03-03T12:23:30.152Z,61.00
2019-03-03T12:26:02.827Z,69.00
2019-03-03T12:28:48.885Z,53.40
2019-03-03T12:31:26.544Z,50.08
2019-03-03T12:33:56.477Z,54.25
2019-03-03T12:36:35.081Z,58.23
2019-03-03T12:39:10.479Z,67.55
2019-03-03T12:41:50.036Z,57.78
2019-03-03T12:44:42.508Z,50.28
2019-03-03T12:47:27.172Z,50.78
2019-03-03T12:49:57.259Z,36.15
2019-03-03T12:52:27.159Z,70.60
2019-03-03T12:54:57.117Z,57.20
2019-03-03T12:57:27.027Z,101.42
2019-03-03T13:00:11.992Z,76.28
2019-03-03T13:02:41.893Z,43.13
2019-03-03T13:05:14.496Z,42.50
2019-03-03T13:07:44.408Z,49.45
2019-03-03T13:10:29.594Z,66.87
2019-03-03T13:13:05.461Z,84.35
2019-03-03T13:15:41.254Z,39.10
2019-03-03T13:18:29.071Z,44.30
2019-03-03T13:20:59.004Z,69.12
2019-03-03T13:23:34.675Z,74.47
2019-03-03T13:26:15.666Z,71.65
2019-03-03T13:28:49.443Z,86.00
2019-03-03T13:31:37.577Z,129.78
2019-03-03T13:34:09.387Z,73.22
2019-03-03T13:36:42.138Z,42.95
2019-03-03T13:39:17.628Z,36.35
2019-03-03T13:41:47.703Z,92.08
2019-03-03T13:44:21.827Z,256.70
2019-03-03T13:46:50.111Z,71.82
2019-03-03T13:49:18.424Z,92.37
2019-03-03T13:51:49.588Z,55.10
2019-03-03T13:54:23.172Z,64.60
2019-03-03T13:56:51.574Z,42.83
2019-03-03T13:59:20.075Z,55.65
2019-03-03T14:01:49.844Z,43.38
2019-03-03T14:04:19.237Z,73.67
2019-03-03T14:06:48.911Z,54.25
2019-03-03T14:09:18.560Z,37.40
2019-03-03T14:11:48.548Z,53.48
2019-03-03T14:14:19.829Z,40.67
2019-03-03T14:16:51.533Z,54.27
2019-03-03T14:19:21.446Z,54.13
2019-03-03T14:21:49.746Z,72.35
2019-03-03T14:24:20.440Z,21.00
2019-03-03T14:26:50.243Z,55.65
2019-03-03T14:29:18.850Z,53.70
2019-03-03T14:31:47.121Z,65.83
2019-03-03T14:34:15.490Z,41.73
2019-03-03T14:36:45.643Z,86.22
2019-03-03T14:39:13.893Z,73.35
2019-03-03T14:41:43.855Z,41.08
2019-03-03T14:44:12.141Z,42.17
2019-03-03T14:46:42.116Z,41.37
2019-03-03T14:49:10.816Z,40.75
2019-03-03T14:51:39.350Z,29.95
2019-03-03T14:54:08.202Z,63.10
2019-03-03T14:56:36.528Z,53.17
2019-03-03T14:59:04.798Z,51.42
2019-03-03T15:01:33.060Z,37.95
2019-03-03T15:04:01.355Z,31.25
2019-03-03T15:06:29.626Z,43.10
2019-03-03T15:08:57.887Z,52.67
2019-03-03T15:11:26.213Z,79.12
2019-03-03T15:13:54.481Z,80.80
2019-03-03T15:16:22.748Z,81.63
2019-03-03T15:18:51.029Z,67.70
2019-03-03T15:21:25.134Z,94.05
2019-03-03T15:23:49.333Z,141.85
2019-03-03T15:26:17.629Z,114.25
2019-03-03T15:28:45.928Z,102.38
2019-03-03T15:31:14.189Z,94.95
2019-03-03T15:33:42.480Z,74.00
2019-03-03T15:36:10.779Z,80.12
2019-03-03T15:38:40.538Z,75.90
2019-03-03T15:41:08.812Z,77.80
2019-03-03T15:43:37.073Z,104.38
2019-03-03T15:46:05.361Z,109.97
2019-03-03T15:48:33.629Z,128.78
2019-03-03T15:51:01.921Z,137.47
2019-03-03T15:53:30.187Z,108.97
2019-03-03T15:55:59.993Z,144.95
2019-03-03T15:58:28.262Z,113.70
2019-03-03T16:00:56.557Z,116.90
2019-03-03T16:03:26.309Z,75.95
2019-03-03T16:05:54.598Z,111.88
2019-03-03T16:08:22.875Z,136.52
2019-03-03T16:10:51.135Z,133.45
2019-03-03T16:13:19.437Z,151.02
2019-03-03T16:15:47.728Z,161.55
2019-03-03T16:18:16.018Z,108.80
2019-03-03T16:20:44.305Z,113.75
2019-03-03T16:23:12.675Z,135.80
2019-03-03T16:25:41.032Z,119.33
2019-03-03T16:28:09.303Z,107.43
2019-03-03T16:30:37.612Z,117.33
2019-03-03T16:33:05.869Z,160.28
2019-03-03T16:35:36.247Z,97.90
2019-03-03T16:38:04.508Z,55.70
2019-03-03T16:40:39.578Z,86.12
2019-03-03T16:43:02.781Z,56.77
2019-03-03T16:45:31.061Z,145.77
2019-03-03T16:47:59.401Z,91.47
2019-03-03T16:50:27.706Z,76.20
2019-03-03T16:52:58.041Z,269.73
2019-03-03T16:55:26.346Z,117.55
2019-03-03T16:57:54.622Z,97.70
2019-03-03T17:00:27.923Z,85.50
2019-03-03T17:02:56.244Z,77.40
2019-03-03T17:05:28.353Z,61.70
2019-03-03T17:07:56.607Z,107.07
2019-03-03T17:10:24.886Z,113.28
2019-03-03T17:12:53.294Z,65.05
2019-03-03T17:15:29.502Z,62.88
2019-03-03T17:17:57.774Z,66.40
2019-03-03T17:20:26.028Z,63.98
2019-03-03T17:22:54.327Z,109.27
2019-03-03T17:25:25.887Z,102.35
2019-03-03T17:27:54.140Z,70.08
2019-03-03T17:30:24.535Z,77.08
2019-03-03T17:32:52.795Z,86.90
2019-03-03T17:35:21.096Z,60.67
2019-03-03T17:37:49.352Z,79.55
2019-03-03T17:40:22.962Z,105.85
2019-03-03T17:42:51.205Z,72.20
2019-03-03T17:45:20.923Z,64.42
2019-03-03T17:47:49.441Z,64.32
2019-03-03T17:50:31.405Z,59.50
2019-03-03T17:52:59.700Z,68.22
2019-03-03T17:55:27.994Z,57.55
2019-03-03T17:57:56.319Z,189.80
2019-03-03T18:00:27.285Z,109.80
2019-03-03T18:02:55.559Z,188.85
2019-03-03T18:05:23.830Z,189.67
2019-03-03T18:07:52.226Z,133.82
2019-03-03T18:10:20.639Z,108.37
2019-03-03T18:12:48.928Z,76.17
2019-03-03T18:15:20.383Z,95.57
2019-03-03T18:17:50.571Z,56.77
2019-03-03T18:20:22.477Z,51.53
2019-03-03T18:22:50.798Z,45.75
2019-03-03T18:25:20.415Z,65.50
2019-03-03T18:27:48.752Z,48.33
2019-03-03T18:30:28.174Z,44.98
2019-03-03T18:32:56.556Z,50.83
2019-03-03T18:35:24.809Z,50.80
2019-03-03T18:37:53.144Z,40.90
2019-03-03T18:40:23.528Z,36.95
2019-03-03T18:42:51.825Z,36.75
2019-03-03T18:45:21.241Z,43.92
2019-03-03T18:47:49.562Z,45.73
2019-03-03T18:50:21.113Z,40.05
2019-03-03T18:52:49.406Z,43.20
2019-03-03T18:55:17.637Z,88.45
2019-03-03T18:57:45.925Z,70.35
2019-03-03T19:00:24.016Z,66.97
2019-03-03T19:02:52.419Z,66.62
2019-03-03T19:05:20.674Z,51.37
2019-03-03T19:07:49.071Z,46.28
2019-03-03T19:10:25.095Z,44.23
2019-03-03T19:12:53.321Z,30.50
2019-03-03T19:15:21.654Z,31.10
2019-03-03T19:17:49.904Z,32.28
2019-03-03T19:20:20.700Z,116.93
2019-03-03T19:22:49.056Z,63.50
2019-03-03T19:25:18.938Z,58.70
2019-03-03T19:27:47.268Z,51.40
2019-03-03T19:30:24.691Z,152.25
2019-03-03T19:33:10.955Z,180.15
2019-03-03T19:35:39.236Z,179.32
2019-03-03T19:38:07.544Z,153.95
2019-03-03T19:40:37.177Z,181.15
2019-03-03T19:43:05.511Z,161.05
2019-03-03T19:45:38.822Z,207.43
2019-03-03T19:48:07.822Z,169.70
2019-03-03T19:50:36.195Z,167.45
2019-03-03T19:53:04.941Z,127.17
2019-03-03T19:55:33.465Z,161.12
2019-03-03T19:58:01.980Z,161.65
2019-03-03T20:00:38.746Z,134.37
2019-03-03T20:03:05.779Z,160.37
2019-03-03T20:05:34.055Z,146.10
2019-03-03T20:08:02.475Z,131.95
2019-03-03T20:10:31.600Z,146.43
2019-03-03T20:12:59.956Z,189.55
2019-03-03T20:15:29.929Z,118.17
2019-03-03T20:17:58.180Z,101.20
2019-03-03T20:20:26.453Z,82.65
2019-03-03T20:22:56.253Z,82.10
2019-03-03T20:25:24.465Z,65.90
2019-03-03T20:27:54.460Z,65.15
2019-03-03T20:30:23.736Z,116.55
2019-03-03T20:32:51.997Z,100.05
2019-03-03T20:35:20.285Z,147.20
2019-03-03T20:37:48.548Z,176.07
2019-03-03T20:40:21.921Z,86.55
2019-03-03T20:42:50.240Z,87.40
2019-03-03T20:45:27.043Z,149.47
2019-03-03T20:47:55.297Z,97.53
2019-03-03T20:50:23.552Z,84.50
2019-03-03T20:52:51.842Z,84.37
2019-03-03T20:55:22.304Z,107.37
2019-03-03T20:57:50.644Z,101.87
2019-03-03T21:00:32.117Z,85.42
2019-03-03T21:03:02.170Z,117.40
2019-03-03T21:05:30.471Z,137.62
2019-03-03T21:07:58.760Z,135.30
2019-03-03T21:10:31.067Z,146.62
2019-03-03T21:13:00.400Z,107.32
2019-03-03T21:15:28.676Z,137.35
2019-03-03T21:17:56.934Z,150.60
2019-03-03T21:20:25.220Z,139.60
2019-03-03T21:22:53.611Z,129.50
2019-03-03T21:25:21.915Z,100.42
2019-03-03T21:27:50.180Z,153.68
2019-03-03T21:30:23.972Z,134.43
2019-03-03T21:32:52.224Z,104.50
2019-03-03T21:35:20.482Z,132.65
2019-03-03T21:37:48.768Z,127.42
2019-03-03T21:40:25.832Z,135.32
2019-03-03T21:42:54.137Z,105.37
2019-03-03T21:45:24.624Z,84.67
2019-03-03T21:47:52.899Z,101.60
2019-03-03T21:50:24.025Z,178.25
2019-03-03T21:52:52.325Z,151.18
2019-03-03T21:55:20.616Z,183.20
2019-03-03T21:57:48.872Z,126.33
2019-03-03T22:00:20.558Z,88.62
2019-03-03T22:02:48.845Z,99.70
2019-03-03T22:05:18.225Z,121.95
2019-03-03T22:07:46.444Z,105.80
2019-03-03T22:10:14.765Z,87.97
2019-03-03T22:12:43.018Z,61.88
2019-03-03T22:15:12.911Z,58.85
2019-03-03T22:17:41.198Z,70.52
2019-03-03T22:20:10.607Z,73.83
2019-03-03T22:22:38.874Z,67.53
2019-03-03T22:25:11.863Z,63.98
2019-03-03T22:27:41.235Z,96.47
2019-03-03T22:30:15.403Z,75.17
2019-03-03T22:32:43.692Z,72.40
2019-03-03T22:35:11.978Z,83.92
2019-03-03T22:37:40.267Z,62.65
2019-03-03T22:40:11.773Z,74.87
2019-03-03T22:42:40.036Z,45.55
2019-03-03T22:45:11.365Z,60.38
2019-03-03T22:47:41.291Z,65.57
2019-03-03T22:50:11.800Z,38.73
2019-03-03T22:52:40.095Z,37.85
2019-03-03T22:55:10.692Z,46.75
2019-03-03T22:57:40.034Z,47.43
2019-03-03T23:00:11.546Z,46.68
2019-03-03T23:02:39.873Z,41.30
2019-03-03T23:05:17.348Z,29.95
2019-03-03T23:07:51.600Z,52.27
2019-03-03T23:10:41.348Z,45.05
2019-03-03T23:13:25.038Z,32.40
2019-03-03T23:16:13.222Z,55.48
2019-03-03T23:18:59.747Z,51.83
2019-03-03T23:21:49.173Z,52.95
2019-03-03T23:24:29.739Z,49.30
2019-03-03T23:26:59.122Z,45.17
2019-03-03T23:29:27.375Z,39.53
2019-03-03T23:31:56.867Z,42.78
2019-03-03T23:34:25.496Z,41.48
2019-03-03T23:36:53.781Z,40.03
2019-03-03T23:39:22.037Z,44.40
2019-03-03T23:41:50.301Z,72.97
2019-03-03T23:44:18.583Z,86.20
2019-03-03T23:46:46.834Z,47.17
2019-03-03T23:49:17.216Z,26.82
2019-03-03T23:51:45.473Z,18.65
2019-03-03T23:54:13.723Z,19.98
2019-03-03T23:56:42.006Z,19.45
2019-03-03T23:59:10.265Z,19.75
